sensor_id;sensor_type;location;lat;lon;timestamp;temperature;humidity
13642;DHT22;6894;52.196;9.904;2023-12-28T00:00:07;9.80;1.00
13642;DHT22;6894;52.196;9.904;2023-12-28T00:02:34;9.80;1.00
13642;DHT22;6894;52.196;9.904;2023-12-28T00:05:03;9.80;1.00
13642;DHT22;6894;52.196;9.904;2023-12-28T00:07:30;9.80;1.00
13642;DHT22;6894;52.196;9.904;2023-12-28T00:09:57;9.80;1.00
13642;DHT22;6894;52.196;9.904;2023-12-28T00:12:23;9.80;1.00
13642;DHT22;6894;52.196;9.904;2023-12-28T00:14:50;9.90;1.00
13642;DHT22;6894;52.196;9.904;2023-12-28T00:17:17;9.90;1.00
13642;DHT22;6894;52.196;9.904;2023-12-28T00:19:44;9.90;1.00
13642;DHT22;6894;52.196;9.904;2023-12-28T00:22:12;10.00;1.00
13642;DHT22;6894;52.196;9.904;2023-12-28T00:24:39;10.00;1.00
13642;DHT22;6894;52.196;9.904;2023-12-28T00:27:06;10.00;1.00
13642;DHT22;6894;52.196;9.904;2023-12-28T00:29:33;10.10;1.00
13642;DHT22;6894;52.196;9.904;2023-12-28T00:32:04;10.10;1.00
13642;DHT22;6894;52.196;9.904;2023-12-28T00:34:31;10.10;1.00
13642;DHT22;6894;52.196;9.904;2023-12-28T00:36:58;10.20;1.00
13642;DHT22;6894;52.196;9.904;2023-12-28T00:39:26;10.20;1.00
13642;DHT22;6894;52.196;9.904;2023-12-28T00:41:53;10.20;1.00
13642;DHT22;6894;52.196;9.904;2023-12-28T00:44:20;10.30;1.00
13642;DHT22;6894;52.196;9.904;2023-12-28T00:46:47;10.30;1.00
13642;DHT22;6894;52.196;9.904;2023-12-28T00:49:13;10.20;1.00
13642;DHT22;6894;52.196;9.904;2023-12-28T00:51:40;10.20;1.00
13642;DHT22;6894;52.196;9.904;2023-12-28T00:54:07;10.20;4.60
13642;DHT22;6894;52.196;9.904;2023-12-28T00:56:35;10.10;99.90
13642;DHT22;6894;52.196;9.904;2023-12-28T00:59:02;10.10;1.00
13642;DHT22;6894;52.196;9.904;2023-12-28T01:01:29;10.10;1.00
13642;DHT22;6894;52.196;9.904;2023-12-28T01:03:56;10.10;1.00
13642;DHT22;6894;52.196;9.904;2023-12-28T01:06:22;10.00;1.00
13642;DHT22;6894;52.196;9.904;2023-12-28T01:08:53;10.00;76.50
13642;DHT22;6894;52.196;9.904;2023-12-28T01:11:20;9.90;90.50
13642;DHT22;6894;52.196;9.904;2023-12-28T01:13:48;9.90;99.90
13642;DHT22;6894;52.196;9.904;2023-12-28T01:16:15;9.80;99.40
13642;DHT22;6894;52.196;9.904;2023-12-28T01:18:41;9.80;99.90
13642;DHT22;6894;52.196;9.904;2023-12-28T01:21:07;9.80;99.90
13642;DHT22;6894;52.196;9.904;2023-12-28T01:23:34;9.70;99.90
13642;DHT22;6894;52.196;9.904;2023-12-28T01:26:01;9.80;99.90
13642;DHT22;6894;52.196;9.904;2023-12-28T01:28:28;9.70;1.00
13642;DHT22;6894;52.196;9.904;2023-12-28T01:30:57;9.60;1.00
13642;DHT22;6894;52.196;9.904;2023-12-28T01:33:23;9.50;1.00
13642;DHT22;6894;52.196;9.904;2023-12-28T01:35:50;9.40;99.90
13642;DHT22;6894;52.196;9.904;2023-12-28T01:38:17;9.40;99.90
13642;DHT22;6894;52.196;9.904;2023-12-28T01:40:44;9.40;99.90
13642;DHT22;6894;52.196;9.904;2023-12-28T01:43:11;9.20;99.90
13642;DHT22;6894;52.196;9.904;2023-12-28T01:45:38;9.20;99.90
13642;DHT22;6894;52.196;9.904;2023-12-28T01:48:07;9.20;99.90
13642;DHT22;6894;52.196;9.904;2023-12-28T01:50:33;9.30;99.90
13642;DHT22;6894;52.196;9.904;2023-12-28T01:53:01;9.30;99.90
13642;DHT22;6894;52.196;9.904;2023-12-28T01:55:29;9.20;99.90
13642;DHT22;6894;52.196;9.904;2023-12-28T01:57:57;9.20;99.90
13642;DHT22;6894;52.196;9.904;2023-12-28T02:00:24;9.30;1.00
13642;DHT22;6894;52.196;9.904;2023-12-28T02:02:51;9.30;1.00
13642;DHT22;6894;52.196;9.904;2023-12-28T02:05:20;9.40;1.00
13642;DHT22;6894;52.196;9.904;2023-12-28T02:07:47;9.30;1.00
13642;DHT22;6894;52.196;9.904;2023-12-28T02:10:13;9.30;1.00
13642;DHT22;6894;52.196;9.904;2023-12-28T02:12:40;9.30;1.00
13642;DHT22;6894;52.196;9.904;2023-12-28T02:15:08;9.40;1.00
13642;DHT22;6894;52.196;9.904;2023-12-28T02:17:39;9.40;1.00
13642;DHT22;6894;52.196;9.904;2023-12-28T02:20:08;9.30;99.90
13642;DHT22;6894;52.196;9.904;2023-12-28T02:22:37;9.30;99.90
13642;DHT22;6894;52.196;9.904;2023-12-28T02:25:08;9.30;1.00
13642;DHT22;6894;52.196;9.904;2023-12-28T02:27:38;9.40;1.00
13642;DHT22;6894;52.196;9.904;2023-12-28T02:30:07;9.30;1.00
13642;DHT22;6894;52.196;9.904;2023-12-28T02:32:42;9.40;1.00
13642;DHT22;6894;52.196;9.904;2023-12-28T02:35:16;9.40;1.00
13642;DHT22;6894;52.196;9.904;2023-12-28T02:37:45;9.40;48.50
13642;DHT22;6894;52.196;9.904;2023-12-28T02:40:17;9.40;99.90
13642;DHT22;6894;52.196;9.904;2023-12-28T02:42:44;9.40;99.90
13642;DHT22;6894;52.196;9.904;2023-12-28T02:45:10;9.40;99.90
13642;DHT22;6894;52.196;9.904;2023-12-28T02:47:37;9.40;99.90
13642;DHT22;6894;52.196;9.904;2023-12-28T02:50:05;9.40;1.00
13642;DHT22;6894;52.196;9.904;2023-12-28T02:52:32;9.50;1.00
13642;DHT22;6894;52.196;9.904;2023-12-28T02:54:59;9.50;1.00
13642;DHT22;6894;52.196;9.904;2023-12-28T02:57:27;9.50;1.00
13642;DHT22;6894;52.196;9.904;2023-12-28T02:59:54;9.50;1.00
13642;DHT22;6894;52.196;9.904;2023-12-28T03:02:22;9.50;1.00
13642;DHT22;6894;52.196;9.904;2023-12-28T03:04:49;9.50;1.00
13642;DHT22;6894;52.196;9.904;2023-12-28T03:07:16;9.50;1.00
13642;DHT22;6894;52.196;9.904;2023-12-28T03:09:43;9.50;1.00
13642;DHT22;6894;52.196;9.904;2023-12-28T03:12:10;9.50;1.00
13642;DHT22;6894;52.196;9.904;2023-12-28T03:14:38;9.50;99.90
13642;DHT22;6894;52.196;9.904;2023-12-28T03:17:05;9.50;99.90
13642;DHT22;6894;52.196;9.904;2023-12-28T03:19:32;9.50;99.90
13642;DHT22;6894;52.196;9.904;2023-12-28T03:21:58;9.60;99.90
13642;DHT22;6894;52.196;9.904;2023-12-28T03:24:25;9.60;5.30
13642;DHT22;6894;52.196;9.904;2023-12-28T03:26:52;9.60;30.90
13642;DHT22;6894;52.196;9.904;2023-12-28T03:29:19;9.60;99.90
13642;DHT22;6894;52.196;9.904;2023-12-28T03:31:48;9.60;1.00
13642;DHT22;6894;52.196;9.904;2023-12-28T03:34:15;9.60;1.00
13642;DHT22;6894;52.196;9.904;2023-12-28T03:36:43;9.70;99.90
13642;DHT22;6894;52.196;9.904;2023-12-28T03:39:09;9.60;1.00
13642;DHT22;6894;52.196;9.904;2023-12-28T03:41:36;9.70;1.00
13642;DHT22;6894;52.196;9.904;2023-12-28T03:44:03;9.70;1.00
13642;DHT22;6894;52.196;9.904;2023-12-28T03:46:30;9.70;21.60
13642;DHT22;6894;52.196;9.904;2023-12-28T03:48:58;9.70;1.00
13642;DHT22;6894;52.196;9.904;2023-12-28T03:51:25;9.70;1.00
13642;DHT22;6894;52.196;9.904;2023-12-28T03:53:52;9.70;1.00
13642;DHT22;6894;52.196;9.904;2023-12-28T03:56:21;9.80;1.00
13642;DHT22;6894;52.196;9.904;2023-12-28T03:58:48;9.80;1.00
13642;DHT22;6894;52.196;9.904;2023-12-28T04:01:17;9.80;1.00
13642;DHT22;6894;52.196;9.904;2023-12-28T04:03:44;9.80;1.00
13642;DHT22;6894;52.196;9.904;2023-12-28T04:06:13;9.90;1.00
13642;DHT22;6894;52.196;9.904;2023-12-28T04:08:40;9.80;1.00
13642;DHT22;6894;52.196;9.904;2023-12-28T04:11:07;9.80;1.00
13642;DHT22;6894;52.196;9.904;2023-12-28T04:13:35;9.90;1.00
13642;DHT22;6894;52.196;9.904;2023-12-28T04:16:02;9.90;1.00
13642;DHT22;6894;52.196;9.904;2023-12-28T04:18:29;9.90;1.00
13642;DHT22;6894;52.196;9.904;2023-12-28T04:20:56;9.80;1.00
13642;DHT22;6894;52.196;9.904;2023-12-28T04:23:24;9.80;1.00
13642;DHT22;6894;52.196;9.904;2023-12-28T04:25:51;9.80;1.00
13642;DHT22;6894;52.196;9.904;2023-12-28T04:28:18;9.80;1.00
13642;DHT22;6894;52.196;9.904;2023-12-28T04:30:45;9.90;99.90
13642;DHT22;6894;52.196;9.904;2023-12-28T04:33:11;9.90;99.90
13642;DHT22;6894;52.196;9.904;2023-12-28T04:35:38;9.90;99.90
13642;DHT22;6894;52.196;9.904;2023-12-28T04:38:05;9.90;99.90
13642;DHT22;6894;52.196;9.904;2023-12-28T04:40:36;9.90;89.80
13642;DHT22;6894;52.196;9.904;2023-12-28T04:43:03;9.90;41.40
13642;DHT22;6894;52.196;9.904;2023-12-28T04:45:30;9.90;1.00
13642;DHT22;6894;52.196;9.904;2023-12-28T04:47:56;9.90;18.90
13642;DHT22;6894;52.196;9.904;2023-12-28T04:50:23;9.90;21.90
13642;DHT22;6894;52.196;9.904;2023-12-28T04:52:50;9.90;10.60
13642;DHT22;6894;52.196;9.904;2023-12-28T04:55:17;9.90;1.00
13642;DHT22;6894;52.196;9.904;2023-12-28T04:57:45;9.90;1.00
13642;DHT22;6894;52.196;9.904;2023-12-28T05:00:12;9.90;1.00
13642;DHT22;6894;52.196;9.904;2023-12-28T05:02:39;10.00;1.00
13642;DHT22;6894;52.196;9.904;2023-12-28T05:05:06;9.90;1.00
13642;DHT22;6894;52.196;9.904;2023-12-28T05:07:34;9.90;1.00
13642;DHT22;6894;52.196;9.904;2023-12-28T05:10:01;10.00;1.00
13642;DHT22;6894;52.196;9.904;2023-12-28T05:12:28;10.00;1.00
13642;DHT22;6894;52.196;9.904;2023-12-28T05:14:56;9.90;1.00
13642;DHT22;6894;52.196;9.904;2023-12-28T05:17:23;10.00;99.90
13642;DHT22;6894;52.196;9.904;2023-12-28T05:19:49;10.00;99.90
13642;DHT22;6894;52.196;9.904;2023-12-28T05:22:16;10.00;99.90
13642;DHT22;6894;52.196;9.904;2023-12-28T05:24:43;10.00;99.90
13642;DHT22;6894;52.196;9.904;2023-12-28T05:27:10;10.00;99.90
13642;DHT22;6894;52.196;9.904;2023-12-28T05:29:36;11.00;99.90
13642;DHT22;6894;52.196;9.904;2023-12-28T05:32:05;9.90;99.90
13642;DHT22;6894;52.196;9.904;2023-12-28T05:34:32;10.00;99.90
13642;DHT22;6894;52.196;9.904;2023-12-28T05:36:59;10.00;99.90
13642;DHT22;6894;52.196;9.904;2023-12-28T05:39:26;10.10;99.90
13642;DHT22;6894;52.196;9.904;2023-12-28T05:41:52;10.10;99.90
13642;DHT22;6894;52.196;9.904;2023-12-28T05:44:19;10.10;99.90
13642;DHT22;6894;52.196;9.904;2023-12-28T05:46:46;10.10;99.90
13642;DHT22;6894;52.196;9.904;2023-12-28T05:49:15;10.00;99.90
13642;DHT22;6894;52.196;9.904;2023-12-28T05:51:42;10.10;99.90
13642;DHT22;6894;52.196;9.904;2023-12-28T05:54:09;10.00;99.90
13642;DHT22;6894;52.196;9.904;2023-12-28T05:56:35;10.00;93.30
13642;DHT22;6894;52.196;9.904;2023-12-28T05:59:02;10.00;1.00
13642;DHT22;6894;52.196;9.904;2023-12-28T06:01:29;10.00;5.60
13642;DHT22;6894;52.196;9.904;2023-12-28T06:03:56;10.00;1.00
13642;DHT22;6894;52.196;9.904;2023-12-28T06:06:23;10.00;1.00
13642;DHT22;6894;52.196;9.904;2023-12-28T06:08:50;10.00;1.00
13642;DHT22;6894;52.196;9.904;2023-12-28T06:11:17;10.00;1.00
13642;DHT22;6894;52.196;9.904;2023-12-28T06:13:43;10.10;1.00
13642;DHT22;6894;52.196;9.904;2023-12-28T06:16:10;10.00;1.00
13642;DHT22;6894;52.196;9.904;2023-12-28T06:18:37;10.10;1.00
13642;DHT22;6894;52.196;9.904;2023-12-28T06:21:04;10.10;1.00
13642;DHT22;6894;52.196;9.904;2023-12-28T06:23:33;10.10;1.00
13642;DHT22;6894;52.196;9.904;2023-12-28T06:26:04;10.10;1.00
13642;DHT22;6894;52.196;9.904;2023-12-28T06:28:32;10.10;1.00
13642;DHT22;6894;52.196;9.904;2023-12-28T06:30:59;10.10;99.90
13642;DHT22;6894;52.196;9.904;2023-12-28T06:33:27;10.20;1.00
13642;DHT22;6894;52.196;9.904;2023-12-28T06:35:54;10.20;99.90
13642;DHT22;6894;52.196;9.904;2023-12-28T06:38:23;10.20;99.90
13642;DHT22;6894;52.196;9.904;2023-12-28T06:40:51;10.20;99.90
13642;DHT22;6894;52.196;9.904;2023-12-28T06:43:18;10.10;99.90
13642;DHT22;6894;52.196;9.904;2023-12-28T06:45:45;10.20;99.90
13642;DHT22;6894;52.196;9.904;2023-12-28T06:48:12;10.20;99.90
13642;DHT22;6894;52.196;9.904;2023-12-28T06:50:42;10.20;99.90
13642;DHT22;6894;52.196;9.904;2023-12-28T06:53:08;10.20;99.90
13642;DHT22;6894;52.196;9.904;2023-12-28T06:55:35;10.20;99.90
13642;DHT22;6894;52.196;9.904;2023-12-28T06:58:03;10.20;99.90
13642;DHT22;6894;52.196;9.904;2023-12-28T07:00:31;10.20;99.90
13642;DHT22;6894;52.196;9.904;2023-12-28T07:02:58;10.20;99.90
13642;DHT22;6894;52.196;9.904;2023-12-28T07:05:25;10.20;99.90
13642;DHT22;6894;52.196;9.904;2023-12-28T07:07:51;10.20;99.90
13642;DHT22;6894;52.196;9.904;2023-12-28T07:10:18;10.20;14.20
13642;DHT22;6894;52.196;9.904;2023-12-28T07:12:45;10.20;84.50
13642;DHT22;6894;52.196;9.904;2023-12-28T07:15:14;10.20;63.10
13642;DHT22;6894;52.196;9.904;2023-12-28T07:17:41;10.20;20.40
13642;DHT22;6894;52.196;9.904;2023-12-28T07:20:08;10.40;65.40
13642;DHT22;6894;52.196;9.904;2023-12-28T07:22:36;10.10;1.00
13642;DHT22;6894;52.196;9.904;2023-12-28T07:25:04;10.20;1.00
13642;DHT22;6894;52.196;9.904;2023-12-28T07:27:31;10.10;8.40
13642;DHT22;6894;52.196;9.904;2023-12-28T07:29:59;10.10;9.30
13642;DHT22;6894;52.196;9.904;2023-12-28T07:32:28;10.10;1.00
13642;DHT22;6894;52.196;9.904;2023-12-28T07:34:55;10.10;1.00
13642;DHT22;6894;52.196;9.904;2023-12-28T07:37:22;10.10;1.00
13642;DHT22;6894;52.196;9.904;2023-12-28T07:39:49;10.10;1.00
13642;DHT22;6894;52.196;9.904;2023-12-28T07:42:16;10.10;1.00
13642;DHT22;6894;52.196;9.904;2023-12-28T07:44:43;10.10;1.00
13642;DHT22;6894;52.196;9.904;2023-12-28T07:47:10;10.10;1.00
13642;DHT22;6894;52.196;9.904;2023-12-28T07:49:39;10.20;1.00
13642;DHT22;6894;52.196;9.904;2023-12-28T07:52:06;10.10;1.00
13642;DHT22;6894;52.196;9.904;2023-12-28T07:54:32;10.10;1.00
13642;DHT22;6894;52.196;9.904;2023-12-28T07:56:59;10.10;1.00
13642;DHT22;6894;52.196;9.904;2023-12-28T07:59:26;10.00;1.00
13642;DHT22;6894;52.196;9.904;2023-12-28T08:01:53;10.10;1.00
13642;DHT22;6894;52.196;9.904;2023-12-28T08:04:20;10.10;1.00
13642;DHT22;6894;52.196;9.904;2023-12-28T08:06:48;10.10;1.00
13642;DHT22;6894;52.196;9.904;2023-12-28T08:09:15;10.10;1.00
13642;DHT22;6894;52.196;9.904;2023-12-28T08:11:41;10.10;1.00
13642;DHT22;6894;52.196;9.904;2023-12-28T08:14:08;10.10;1.00
13642;DHT22;6894;52.196;9.904;2023-12-28T08:16:35;10.20;1.00
13642;DHT22;6894;52.196;9.904;2023-12-28T08:19:02;10.20;1.00
13642;DHT22;6894;52.196;9.904;2023-12-28T08:21:27;10.10;1.00
13642;DHT22;6894;52.196;9.904;2023-12-28T08:23:57;10.20;1.00
13642;DHT22;6894;52.196;9.904;2023-12-28T08:26:23;10.20;99.90
13642;DHT22;6894;52.196;9.904;2023-12-28T08:28:50;10.30;99.90
13642;DHT22;6894;52.196;9.904;2023-12-28T08:31:18;10.30;99.90
13642;DHT22;6894;52.196;9.904;2023-12-28T08:33:44;10.30;99.90
13642;DHT22;6894;52.196;9.904;2023-12-28T08:36:11;10.30;99.90
13642;DHT22;6894;52.196;9.904;2023-12-28T08:38:38;10.30;99.90
13642;DHT22;6894;52.196;9.904;2023-12-28T08:41:06;10.40;99.90
13642;DHT22;6894;52.196;9.904;2023-12-28T08:43:35;10.30;99.90
13642;DHT22;6894;52.196;9.904;2023-12-28T08:46:01;10.40;99.90
13642;DHT22;6894;52.196;9.904;2023-12-28T08:48:28;10.40;99.90
13642;DHT22;6894;52.196;9.904;2023-12-28T08:50:55;10.30;99.90
13642;DHT22;6894;52.196;9.904;2023-12-28T08:53:22;10.40;99.90
13642;DHT22;6894;52.196;9.904;2023-12-28T08:55:49;10.40;1.00
13642;DHT22;6894;52.196;9.904;2023-12-28T08:58:18;10.50;1.00
13642;DHT22;6894;52.196;9.904;2023-12-28T09:00:45;10.50;24.40
13642;DHT22;6894;52.196;9.904;2023-12-28T09:03:13;10.50;1.00
13642;DHT22;6894;52.196;9.904;2023-12-28T09:05:40;10.50;1.00
13642;DHT22;6894;52.196;9.904;2023-12-28T09:08:06;10.50;1.00
13642;DHT22;6894;52.196;9.904;2023-12-28T09:10:33;10.50;1.00
13642;DHT22;6894;52.196;9.904;2023-12-28T09:13:00;10.60;1.00
13642;DHT22;6894;52.196;9.904;2023-12-28T09:15:28;10.60;1.00
13642;DHT22;6894;52.196;9.904;2023-12-28T09:17:56;10.70;1.00
13642;DHT22;6894;52.196;9.904;2023-12-28T09:20:22;10.60;1.00
13642;DHT22;6894;52.196;9.904;2023-12-28T09:22:49;10.70;1.00
13642;DHT22;6894;52.196;9.904;2023-12-28T09:25:21;10.70;1.00
13642;DHT22;6894;52.196;9.904;2023-12-28T09:27:48;10.70;1.00
13642;DHT22;6894;52.196;9.904;2023-12-28T09:30:15;10.70;1.00
13642;DHT22;6894;52.196;9.904;2023-12-28T09:32:43;10.80;1.00
13642;DHT22;6894;52.196;9.904;2023-12-28T09:35:10;10.80;1.00
13642;DHT22;6894;52.196;9.904;2023-12-28T09:37:37;10.80;1.00
13642;DHT22;6894;52.196;9.904;2023-12-28T09:40:04;10.80;1.00
13642;DHT22;6894;52.196;9.904;2023-12-28T09:42:38;10.90;1.00
13642;DHT22;6894;52.196;9.904;2023-12-28T09:45:07;10.90;1.00
13642;DHT22;6894;52.196;9.904;2023-12-28T09:47:35;10.80;1.00
13642;DHT22;6894;52.196;9.904;2023-12-28T09:50:04;10.90;1.00
13642;DHT22;6894;52.196;9.904;2023-12-28T09:52:31;10.90;99.90
13642;DHT22;6894;52.196;9.904;2023-12-28T09:54:58;10.90;1.00
13642;DHT22;6894;52.196;9.904;2023-12-28T09:57:25;10.90;1.00
13642;DHT22;6894;52.196;9.904;2023-12-28T09:59:52;10.90;1.00
13642;DHT22;6894;52.196;9.904;2023-12-28T10:02:19;11.00;1.00
13642;DHT22;6894;52.196;9.904;2023-12-28T10:04:46;11.00;99.90
13642;DHT22;6894;52.196;9.904;2023-12-28T10:07:14;10.90;1.00
13642;DHT22;6894;52.196;9.904;2023-12-28T10:09:41;11.00;99.90
13642;DHT22;6894;52.196;9.904;2023-12-28T10:12:08;11.00;1.00
13642;DHT22;6894;52.196;9.904;2023-12-28T10:14:36;11.00;99.90
13642;DHT22;6894;52.196;9.904;2023-12-28T10:17:01;10.90;99.90
13642;DHT22;6894;52.196;9.904;2023-12-28T10:19:28;11.00;1.00
13642;DHT22;6894;52.196;9.904;2023-12-28T10:21:55;11.00;99.90
13642;DHT22;6894;52.196;9.904;2023-12-28T10:24:24;11.10;99.90
13642;DHT22;6894;52.196;9.904;2023-12-28T10:26:52;11.10;99.90
13642;DHT22;6894;52.196;9.904;2023-12-28T10:29:19;11.10;1.00
13642;DHT22;6894;52.196;9.904;2023-12-28T10:31:45;11.40;99.90
13642;DHT22;6894;52.196;9.904;2023-12-28T10:34:14;11.60;99.90
13642;DHT22;6894;52.196;9.904;2023-12-28T10:36:42;11.90;1.00
13642;DHT22;6894;52.196;9.904;2023-12-28T10:39:09;12.20;1.00
13642;DHT22;6894;52.196;9.904;2023-12-28T10:41:41;12.30;1.00
13642;DHT22;6894;52.196;9.904;2023-12-28T10:44:12;12.50;1.00
13642;DHT22;6894;52.196;9.904;2023-12-28T10:46:44;12.40;1.00
13642;DHT22;6894;52.196;9.904;2023-12-28T10:49:14;12.40;1.00
13642;DHT22;6894;52.196;9.904;2023-12-28T10:51:43;12.20;1.00
13642;DHT22;6894;52.196;9.904;2023-12-28T10:54:23;12.10;1.00
13642;DHT22;6894;52.196;9.904;2023-12-28T10:56:59;12.00;1.00
13642;DHT22;6894;52.196;9.904;2023-12-28T10:59:35;11.90;1.00
13642;DHT22;6894;52.196;9.904;2023-12-28T11:02:07;11.80;1.00
13642;DHT22;6894;52.196;9.904;2023-12-28T11:04:40;11.60;1.00
13642;DHT22;6894;52.196;9.904;2023-12-28T11:07:09;11.60;1.00
13642;DHT22;6894;52.196;9.904;2023-12-28T11:09:37;11.60;1.00
13642;DHT22;6894;52.196;9.904;2023-12-28T11:12:07;11.60;1.00
13642;DHT22;6894;52.196;9.904;2023-12-28T11:14:36;11.60;32.60
13642;DHT22;6894;52.196;9.904;2023-12-28T11:17:05;11.60;1.00
13642;DHT22;6894;52.196;9.904;2023-12-28T11:19:33;11.60;1.00
13642;DHT22;6894;52.196;9.904;2023-12-28T11:22:02;11.60;1.00
13642;DHT22;6894;52.196;9.904;2023-12-28T11:24:30;11.60;1.00
13642;DHT22;6894;52.196;9.904;2023-12-28T11:26:58;11.60;1.00
13642;DHT22;6894;52.196;9.904;2023-12-28T11:29:29;11.60;1.00
13642;DHT22;6894;52.196;9.904;2023-12-28T11:31:58;11.60;1.00
13642;DHT22;6894;52.196;9.904;2023-12-28T11:34:26;11.60;1.00
13642;DHT22;6894;52.196;9.904;2023-12-28T11:36:55;11.60;1.00
13642;DHT22;6894;52.196;9.904;2023-12-28T11:39:29;11.60;1.00
13642;DHT22;6894;52.196;9.904;2023-12-28T11:41:59;11.70;1.00
13642;DHT22;6894;52.196;9.904;2023-12-28T11:44:30;11.70;1.00
13642;DHT22;6894;52.196;9.904;2023-12-28T11:46:57;11.70;1.00
13642;DHT22;6894;52.196;9.904;2023-12-28T11:49:26;11.70;1.00
13642;DHT22;6894;52.196;9.904;2023-12-28T11:51:55;11.70;1.00
13642;DHT22;6894;52.196;9.904;2023-12-28T11:54:23;11.70;1.00
13642;DHT22;6894;52.196;9.904;2023-12-28T11:56:50;11.60;1.00
13642;DHT22;6894;52.196;9.904;2023-12-28T11:59:17;11.70;1.00
13642;DHT22;6894;52.196;9.904;2023-12-28T12:01:49;11.60;1.00
13642;DHT22;6894;52.196;9.904;2023-12-28T12:04:16;11.70;1.00
13642;DHT22;6894;52.196;9.904;2023-12-28T12:06:44;11.70;1.00
13642;DHT22;6894;52.196;9.904;2023-12-28T12:09:11;11.70;1.00
13642;DHT22;6894;52.196;9.904;2023-12-28T12:11:38;11.80;1.00
13642;DHT22;6894;52.196;9.904;2023-12-28T12:14:08;11.70;1.00
13642;DHT22;6894;52.196;9.904;2023-12-28T12:16:35;11.80;1.00
13642;DHT22;6894;52.196;9.904;2023-12-28T12:19:04;11.80;1.00
13642;DHT22;6894;52.196;9.904;2023-12-28T12:21:32;11.80;1.00
13642;DHT22;6894;52.196;9.904;2023-12-28T12:23:59;11.80;1.00
13642;DHT22;6894;52.196;9.904;2023-12-28T12:26:26;11.80;1.00
13642;DHT22;6894;52.196;9.904;2023-12-28T12:28:53;11.80;1.00
13642;DHT22;6894;52.196;9.904;2023-12-28T12:31:20;11.80;1.00
13642;DHT22;6894;52.196;9.904;2023-12-28T12:33:47;11.90;1.00
13642;DHT22;6894;52.196;9.904;2023-12-28T12:36:17;11.80;1.00
13642;DHT22;6894;52.196;9.904;2023-12-28T12:38:44;11.90;1.00
13642;DHT22;6894;52.196;9.904;2023-12-28T12:41:11;11.90;1.00
13642;DHT22;6894;52.196;9.904;2023-12-28T12:43:39;11.80;1.00
13642;DHT22;6894;52.196;9.904;2023-12-28T12:46:06;11.80;1.00
13642;DHT22;6894;52.196;9.904;2023-12-28T12:48:33;11.80;1.00
13642;DHT22;6894;52.196;9.904;2023-12-28T12:51:02;11.80;1.00
13642;DHT22;6894;52.196;9.904;2023-12-28T12:53:34;11.80;1.00
13642;DHT22;6894;52.196;9.904;2023-12-28T12:56:03;11.80;1.00
13642;DHT22;6894;52.196;9.904;2023-12-28T12:58:30;11.80;1.00
13642;DHT22;6894;52.196;9.904;2023-12-28T13:00:57;11.80;1.00
13642;DHT22;6894;52.196;9.904;2023-12-28T13:03:27;11.80;1.00
13642;DHT22;6894;52.196;9.904;2023-12-28T13:05:54;11.80;1.00
13642;DHT22;6894;52.196;9.904;2023-12-28T13:08:21;11.80;1.00
13642;DHT22;6894;52.196;9.904;2023-12-28T13:10:50;11.80;1.00
13642;DHT22;6894;52.196;9.904;2023-12-28T13:13:16;11.80;1.00
13642;DHT22;6894;52.196;9.904;2023-12-28T13:18:19;11.80;1.00
13642;DHT22;6894;52.196;9.904;2023-12-28T13:20:45;11.80;1.00
13642;DHT22;6894;52.196;9.904;2023-12-28T13:23:12;11.80;1.00
13642;DHT22;6894;52.196;9.904;2023-12-28T13:25:39;11.80;1.00
13642;DHT22;6894;52.196;9.904;2023-12-28T13:28:07;12.40;1.00
13642;DHT22;6894;52.196;9.904;2023-12-28T13:30:35;11.90;1.00
13642;DHT22;6894;52.196;9.904;2023-12-28T13:33:03;12.20;1.00
13642;DHT22;6894;52.196;9.904;2023-12-28T13:35:30;11.90;1.00
13642;DHT22;6894;52.196;9.904;2023-12-28T13:37:58;11.90;1.00
13642;DHT22;6894;52.196;9.904;2023-12-28T13:40:26;11.90;1.00
13642;DHT22;6894;52.196;9.904;2023-12-28T13:42:53;11.90;1.00
13642;DHT22;6894;52.196;9.904;2023-12-28T13:45:21;11.80;1.00
13642;DHT22;6894;52.196;9.904;2023-12-28T13:47:48;11.90;1.00
13642;DHT22;6894;52.196;9.904;2023-12-28T13:50:15;11.90;1.00
13642;DHT22;6894;52.196;9.904;2023-12-28T13:52:41;11.80;1.00
13642;DHT22;6894;52.196;9.904;2023-12-28T13:55:08;12.10;1.00
13642;DHT22;6894;52.196;9.904;2023-12-28T13:57:35;11.80;1.00
13642;DHT22;6894;52.196;9.904;2023-12-28T14:00:02;12.50;1.00
13642;DHT22;6894;52.196;9.904;2023-12-28T14:02:32;11.80;1.00
13642;DHT22;6894;52.196;9.904;2023-12-28T14:04:59;11.80;1.00
13642;DHT22;6894;52.196;9.904;2023-12-28T14:07:26;11.80;1.00
13642;DHT22;6894;52.196;9.904;2023-12-28T14:09:53;11.80;1.00
13642;DHT22;6894;52.196;9.904;2023-12-28T14:12:19;11.80;1.00
13642;DHT22;6894;52.196;9.904;2023-12-28T14:14:46;11.80;1.00
13642;DHT22;6894;52.196;9.904;2023-12-28T14:17:13;11.80;1.00
13642;DHT22;6894;52.196;9.904;2023-12-28T14:19:42;11.80;1.00
13642;DHT22;6894;52.196;9.904;2023-12-28T14:22:09;11.80;1.00
13642;DHT22;6894;52.196;9.904;2023-12-28T14:24:36;11.80;1.00
13642;DHT22;6894;52.196;9.904;2023-12-28T14:27:04;11.70;1.00
13642;DHT22;6894;52.196;9.904;2023-12-28T14:29:31;11.70;1.00
13642;DHT22;6894;52.196;9.904;2023-12-28T14:31:58;11.70;1.00
13642;DHT22;6894;52.196;9.904;2023-12-28T14:34:25;11.70;1.00
13642;DHT22;6894;52.196;9.904;2023-12-28T14:36:54;11.70;1.00
13642;DHT22;6894;52.196;9.904;2023-12-28T14:39:21;11.70;1.00
13642;DHT22;6894;52.196;9.904;2023-12-28T14:41:47;12.10;1.00
13642;DHT22;6894;52.196;9.904;2023-12-28T14:44:14;11.70;1.00
13642;DHT22;6894;52.196;9.904;2023-12-28T14:46:41;11.60;1.00
13642;DHT22;6894;52.196;9.904;2023-12-28T14:49:08;11.70;1.00
13642;DHT22;6894;52.196;9.904;2023-12-28T14:51:34;11.70;1.00
13642;DHT22;6894;52.196;9.904;2023-12-28T14:54:02;11.70;1.00
13642;DHT22;6894;52.196;9.904;2023-12-28T14:56:29;12.00;1.00
13642;DHT22;6894;52.196;9.904;2023-12-28T14:58:56;11.60;1.00
13642;DHT22;6894;52.196;9.904;2023-12-28T15:01:23;11.70;1.00
13642;DHT22;6894;52.196;9.904;2023-12-28T15:03:50;11.70;1.00
13642;DHT22;6894;52.196;9.904;2023-12-28T15:06:16;11.70;1.00
13642;DHT22;6894;52.196;9.904;2023-12-28T15:08:43;11.70;1.00
13642;DHT22;6894;52.196;9.904;2023-12-28T15:11:12;11.60;1.00
13642;DHT22;6894;52.196;9.904;2023-12-28T15:13:39;11.70;1.00
13642;DHT22;6894;52.196;9.904;2023-12-28T15:16:07;11.60;1.00
13642;DHT22;6894;52.196;9.904;2023-12-28T15:18:35;11.60;1.00
13642;DHT22;6894;52.196;9.904;2023-12-28T15:21:02;11.60;1.00
13642;DHT22;6894;52.196;9.904;2023-12-28T15:23:29;11.60;1.00
13642;DHT22;6894;52.196;9.904;2023-12-28T15:25:57;11.60;1.00
13642;DHT22;6894;52.196;9.904;2023-12-28T15:28:25;11.60;1.00
13642;DHT22;6894;52.196;9.904;2023-12-28T15:30:51;11.60;1.00
13642;DHT22;6894;52.196;9.904;2023-12-28T15:33:18;11.60;1.00
13642;DHT22;6894;52.196;9.904;2023-12-28T15:35:45;11.60;1.00
13642;DHT22;6894;52.196;9.904;2023-12-28T15:38:12;11.60;1.00
13642;DHT22;6894;52.196;9.904;2023-12-28T15:40:41;11.60;1.00
13642;DHT22;6894;52.196;9.904;2023-12-28T15:43:08;11.60;1.00
13642;DHT22;6894;52.196;9.904;2023-12-28T15:45:37;11.60;1.00
13642;DHT22;6894;52.196;9.904;2023-12-28T15:48:04;11.50;1.00
13642;DHT22;6894;52.196;9.904;2023-12-28T15:50:31;11.50;1.00
13642;DHT22;6894;52.196;9.904;2023-12-28T15:52:58;11.60;1.00
13642;DHT22;6894;52.196;9.904;2023-12-28T15:55:24;11.90;1.00
13642;DHT22;6894;52.196;9.904;2023-12-28T15:57:51;11.50;1.00
13642;DHT22;6894;52.196;9.904;2023-12-28T16:00:18;11.60;1.00
13642;DHT22;6894;52.196;9.904;2023-12-28T16:02:46;11.60;1.00
13642;DHT22;6894;52.196;9.904;2023-12-28T16:05:13;11.60;1.00